Time;durP1;ratioP1;P1;durP2;ratioP2;P2;SDS_P1;SDS_P2;PMS_P1;PMS_P2;Temp;Humidity;BMP_temperature;BMP_pressure;BME280_temperature;BME280_humidity;BME280_pressure;Samples;Min_cycle;Max_cycle;Signal;HPM_P1;HPM_P2
2022/10/04 00:00:23;;;;;;;4.20;2.05;;;;;;;10.91;62.47;95681.22;4989928;28;20091;-86
2022/10/04 00:02:49;;;;;;;3.25;2.05;;;;;;;10.96;62.18;95689.59;4990369;28;20030;-85
2022/10/04 00:05:15;;;;;;;4.82;2.03;;;;;;;11.05;61.94;95693.91;4973314;28;20451;-86
2022/10/04 00:07:45;;;;;;;4.32;2.03;;;;;;;11.06;61.59;95694.75;5007345;28;20033;-86
2022/10/04 00:10:19;;;;;;;4.93;2.10;;;;;;;10.97;61.92;95689.41;4972695;28;20036;-85
2022/10/04 00:12:47;;;;;;;3.22;2.20;;;;;;;10.93;62.18;95690.75;4973845;28;20026;-86
2022/10/04 00:15:22;;;;;;;3.72;2.20;;;;;;;10.94;62.12;95684.41;4973219;28;20064;-85
2022/10/04 00:18:18;;;;;;;3.95;2.13;;;;;;;11.08;61.62;95692.72;4973628;28;20025;-85
2022/10/04 00:20:49;;;;;;;2.85;1.90;;;;;;;11.16;61.49;95690.00;5007609;28;20040;-86
2022/10/04 00:23:24;;;;;;;3.17;2.15;;;;;;;11.12;61.18;95686.00;5006935;28;20040;-86
2022/10/04 00:25:57;;;;;;;4.07;2.30;;;;;;;11.21;60.95;95682.28;5007354;28;20033;-86
2022/10/04 00:28:23;;;;;;;2.97;2.03;;;;;;;11.25;60.75;95688.94;4989171;28;20032;-85
2022/10/04 00:31:06;;;;;;;4.03;2.20;;;;;;;11.18;60.73;95682.63;5007279;28;20033;-85
2022/10/04 00:33:48;;;;;;;3.35;2.05;;;;;;;11.14;60.64;95675.91;5007134;28;20049;-86
2022/10/04 00:36:22;;;;;;;4.03;2.30;;;;;;;11.06;60.71;95674.09;5006288;28;20575;-85
2022/10/04 00:39:06;;;;;;;2.75;1.65;;;;;;;11.13;60.71;95669.72;5007135;28;20037;-86
2022/10/04 00:41:47;;;;;;;2.80;1.92;;;;;;;11.07;60.77;95664.22;5006539;28;20022;-87
2022/10/04 00:44:21;;;;;;;5.43;2.05;;;;;;;11.06;60.88;95670.59;5006332;28;20054;-86
2022/10/04 00:46:46;;;;;;;5.40;2.20;;;;;;;11.16;60.27;95671.22;5007628;28;20029;-85
2022/10/04 00:49:11;;;;;;;4.95;2.05;;;;;;;11.27;59.93;95661.09;4988841;28;20428;-86
2022/10/04 00:51:53;;;;;;;3.75;1.73;;;;;;;11.30;59.91;95658.88;4973077;28;20568;-86
2022/10/04 00:54:23;;;;;;;3.78;2.10;;;;;;;11.38;59.67;95660.72;4973987;28;20032;-87
2022/10/04 00:56:50;;;;;;;5.40;1.80;;;;;;;11.41;59.65;95660.34;4989267;28;20080;-87
2022/10/04 00:59:15;;;;;;;3.10;1.85;;;;;;;11.43;59.45;95665.56;5006690;28;20054;-86
2022/10/04 01:01:41;;;;;;;3.70;1.70;;;;;;;11.40;59.43;95658.66;5007194;28;20025;-85
2022/10/04 01:04:20;;;;;;;2.58;1.63;;;;;;;11.42;59.77;95662.03;4973676;28;20072;-87
2022/10/04 01:06:45;;;;;;;4.60;2.00;;;;;;;11.42;59.47;95662.03;4974042;28;20030;-86
2022/10/04 01:09:10;;;;;;;3.38;1.90;;;;;;;11.43;59.13;95655.63;4956617;28;20401;-86
2022/10/04 01:11:40;;;;;;;3.42;1.98;;;;;;;11.49;59.29;95660.28;4988530;28;20037;-88
2022/10/04 01:14:13;;;;;;;3.25;1.90;;;;;;;11.43;58.88;95658.31;4957200;28;20030;-85
2022/10/04 01:16:39;;;;;;;3.97;1.85;;;;;;;11.44;58.91;95667.22;4957204;28;20034;-86
2022/10/04 01:19:22;;;;;;;2.58;1.83;;;;;;;11.42;58.79;95653.97;4972651;28;20049;-85
2022/10/04 01:22:02;;;;;;;5.57;2.03;;;;;;;11.27;59.20;95658.41;4993635;28;20053;-85
2022/10/04 01:24:35;;;;;;;2.85;1.90;;;;;;;11.25;59.34;95651.34;4976707;28;20050;-86
2022/10/04 01:27:00;;;;;;;3.45;1.48;;;;;;;11.22;59.24;95646.34;4976871;28;20109;-86
2022/10/04 01:29:27;;;;;;;3.85;1.83;;;;;;;11.13;59.44;95640.19;4992490;28;20026;-86
2022/10/04 01:31:54;;;;;;;2.45;1.60;;;;;;;10.86;60.14;95647.69;4993206;28;20061;-86
2022/10/04 01:34:23;;;;;;;2.83;1.60;;;;;;;10.86;60.42;95644.16;4976392;28;20037;-86
2022/10/04 01:36:51;;;;;;;3.53;1.90;;;;;;;10.74;60.80;95649.91;4960261;28;20034;-85
2022/10/04 01:39:17;;;;;;;3.45;1.63;;;;;;;10.81;60.46;95644.69;4960533;28;20495;-86
2022/10/04 01:42:03;;;;;;;2.63;1.63;;;;;;;10.75;60.55;95645.38;4976062;28;20058;-86
2022/10/04 01:44:42;;;;;;;3.17;1.75;;;;;;;10.70;60.67;95653.94;4992536;28;20528;-85
2022/10/04 01:47:13;;;;;;;4.35;1.85;;;;;;;10.56;61.24;95642.06;4977120;28;20026;-86
2022/10/04 01:49:38;;;;;;;4.07;1.58;;;;;;;10.66;60.81;95641.03;4976855;28;20322;-86
2022/10/04 01:52:23;;;;;;;2.47;1.73;;;;;;;10.70;60.64;95647.75;4992587;28;20505;-86
2022/10/04 01:54:57;;;;;;;3.58;1.80;;;;;;;10.56;60.86;95646.63;4991627;28;20069;-86
2022/10/04 01:57:23;;;;;;;2.72;1.75;;;;;;;10.55;61.23;95644.94;4977394;28;20036;-86
2022/10/04 01:59:50;;;;;;;2.88;1.42;;;;;;;10.70;60.60;95643.22;4976301;28;20034;-86
2022/10/04 02:02:31;;;;;;;3.58;1.80;;;;;;;10.71;60.42;95646.72;4976053;28;20604;-86
2022/10/04 02:04:56;;;;;;;3.38;1.60;;;;;;;10.71;60.59;95652.94;5009853;28;20049;-86
2022/10/04 02:07:22;;;;;;;6.20;2.38;;;;;;;10.80;59.74;95647.53;4991608;28;20358;-85
2022/10/04 02:09:49;;;;;;;2.88;1.50;;;;;;;10.75;59.89;95651.56;4975612;28;20516;-86
2022/10/04 02:12:18;;;;;;;2.47;1.70;;;;;;;10.74;59.85;95654.41;4975307;28;20037;-88
2022/10/04 02:14:51;;;;;;;2.60;1.52;;;;;;;10.80;59.53;95652.91;4976592;28;20033;-87
2022/10/04 02:17:17;;;;;;;4.40;1.55;;;;;;;10.81;59.46;95651.91;4960873;28;20066;-87
2022/10/04 02:19:43;;;;;;;3.72;1.55;;;;;;;10.74;59.57;95651.75;4959472;28;20065;-87
2022/10/04 02:22:09;;;;;;;3.10;1.60;;;;;;;10.80;59.83;95652.91;4975873;28;20034;-86
2022/10/04 02:24:36;;;;;;;4.38;1.90;;;;;;;10.79;59.85;95652.06;4991446;28;20036;-86
2022/10/04 02:27:02;;;;;;;2.33;1.45;;;;;;;10.77;60.06;95662.13;4959733;28;20018;-86
2022/10/04 02:29:27;;;;;;;2.53;1.67;;;;;;;10.79;59.91;95664.63;4959343;28;20409;-86
2022/10/04 02:34:36;;;;;;;4.47;1.80;;;;;;;10.60;60.66;95666.72;4980812;28;20093;-87
2022/10/04 02:37:03;;;;;;;2.75;1.52;;;;;;;10.50;61.11;95659.69;4975989;28;20038;-85
2022/10/04 02:39:35;;;;;;;2.70;1.63;;;;;;;10.55;61.23;95661.00;4975821;28;20030;-85
2022/10/04 02:42:24;;;;;;;3.13;1.65;;;;;;;10.56;61.37;95673.44;4992797;28;20091;-86
2022/10/04 02:44:54;;;;;;;3.67;1.77;;;;;;;10.54;61.39;95676.28;5009588;28;20045;-85
2022/10/04 02:47:22;;;;;;;3.60;1.65;;;;;;;10.50;61.81;95682.97;4976831;28;20512;-85
2022/10/04 02:49:47;;;;;;;4.13;1.80;;;;;;;10.47;61.81;95683.31;4959610;28;20025;-85
2022/10/04 02:52:15;;;;;;;6.18;2.10;;;;;;;10.50;61.76;95680.31;4991295;28;20432;-86
2022/10/04 02:54:55;;;;;;;3.72;1.70;;;;;;;10.64;61.59;95676.06;4990679;28;20038;-86
2022/10/04 02:57:21;;;;;;;3.70;1.92;;;;;;;10.61;61.43;95679.09;4991461;28;20619;-84
2022/10/04 02:59:47;;;;;;;2.65;1.73;;;;;;;10.69;61.45;95672.91;4974086;28;20437;-86
2022/10/04 03:02:26;;;;;;;4.22;1.63;;;;;;;10.65;61.78;95688.50;4975362;28;20022;-86
2022/10/04 03:04:52;;;;;;;3.25;2.30;;;;;;;10.57;62.16;95692.03;4974796;28;20026;-87
2022/10/04 03:07:18;;;;;;;2.72;1.80;;;;;;;10.67;62.17;95686.50;4975303;28;20033;-85
2022/10/04 03:09:43;;;;;;;5.38;2.13;;;;;;;10.73;61.56;95682.28;4991080;28;20026;-85
2022/10/04 03:12:09;;;;;;;4.05;1.90;;;;;;;10.78;61.10;95693.34;4977523;28;20030;-85
2022/10/04 03:14:35;;;;;;;4.22;2.13;;;;;;;10.83;60.71;95698.19;4995728;28;20105;-85
2022/10/04 03:17:02;;;;;;;3.20;1.83;;;;;;;10.83;60.67;95696.31;4974004;28;20029;-86
2022/10/04 03:19:28;;;;;;;2.80;1.90;;;;;;;10.87;60.56;95703.03;4958889;28;20453;-85
2022/10/04 03:21:56;;;;;;;4.07;1.75;;;;;;;10.81;61.18;95702.88;4957775;28;20539;-86
2022/10/04 03:24:23;;;;;;;3.35;1.90;;;;;;;10.74;60.63;95708.94;4974728;28;20037;-86
2022/10/04 03:26:54;;;;;;;3.35;2.00;;;;;;;10.73;60.70;95706.41;4974351;28;20042;-86
2022/10/04 03:29:21;;;;;;;2.60;1.85;;;;;;;10.62;60.83;95711.13;4974322;28;20029;-87
2022/10/04 03:31:48;;;;;;;4.07;2.22;;;;;;;10.56;61.44;95713.66;5008267;28;20045;-85
2022/10/04 03:34:15;;;;;;;3.10;2.00;;;;;;;10.35;62.07;95704.28;4989495;28;20484;-86
2022/10/04 03:36:41;;;;;;;3.63;2.13;;;;;;;10.20;63.08;95713.00;4990551;28;20056;-86
2022/10/04 03:39:07;;;;;;;4.28;1.90;;;;;;;10.34;62.54;95715.97;4974053;28;20424;-86
2022/10/04 03:41:33;;;;;;;3.05;2.00;;;;;;;10.34;62.63;95724.88;4974573;28;20488;-84
2022/10/04 03:43:59;;;;;;;2.47;1.98;;;;;;;10.33;62.52;95725.03;4953976;28;20058;-86
2022/10/04 03:46:24;;;;;;;2.97;1.90;;;;;;;10.25;62.82;95731.25;4987265;28;20030;-86
2022/10/04 03:48:51;;;;;;;4.13;2.30;;;;;;;10.21;62.14;95725.38;4988089;28;20022;-86
2022/10/04 03:51:22;;;;;;;3.60;2.22;;;;;;;10.31;62.34;95724.38;4986251;28;20041;-86
2022/10/04 03:53:51;;;;;;;4.88;2.40;;;;;;;10.46;61.61;95725.38;4970884;28;20401;-86
2022/10/04 03:56:34;;;;;;;4.47;1.80;;;;;;;10.58;61.24;95730.41;4969828;28;20405;-85
2022/10/04 03:59:02;;;;;;;3.53;2.33;;;;;;;10.57;61.24;95734.94;4954374;28;20485;-86
2022/10/04 04:01:46;;;;;;;4.13;2.35;;;;;;;10.63;61.05;95738.78;4954125;28;20081;-86
2022/10/04 04:04:14;;;;;;;3.72;2.53;;;;;;;10.59;61.42;95734.78;4980138;28;20026;-86
2022/10/04 04:06:49;;;;;;;3.30;2.15;;;;;;;10.60;61.69;95739.13;4987991;28;20030;-85
2022/10/04 04:09:25;;;;;;;3.78;2.20;;;;;;;10.64;61.38;95743.13;4987073;28;20065;-85
2022/10/04 04:11:50;;;;;;;5.22;2.60;;;;;;;10.76;61.51;95743.63;4972769;28;20034;-87
2022/10/04 04:14:22;;;;;;;4.63;2.78;;;;;;;10.72;61.43;95745.81;4987954;28;20382;-85
2022/10/04 04:16:48;;;;;;;3.33;2.40;;;;;;;10.66;61.09;95757.22;4970642;28;20086;-86
2022/10/04 04:19:15;;;;;;;5.78;2.55;;;;;;;10.60;61.70;95752.53;4986216;28;20515;-86
2022/10/04 04:21:40;;;;;;;5.15;2.30;;;;;;;10.68;61.54;95751.69;4953786;28;20103;-86
2022/10/04 04:24:13;;;;;;;4.57;2.40;;;;;;;10.80;60.91;95754.88;4969877;28;20031;-85
2022/10/04 04:26:41;;;;;;;6.22;2.80;;;;;;;10.81;60.85;95757.38;4969834;28;20033;-86
2022/10/04 04:29:11;;;;;;;3.38;2.10;;;;;;;10.58;61.55;95763.44;4970307;28;20030;-86
2022/10/04 04:31:41;;;;;;;3.45;2.20;;;;;;;10.50;61.95;95760.75;4970346;28;20501;-85
2022/10/04 04:34:33;;;;;;;4.40;1.98;;;;;;;10.62;61.81;95764.75;4986461;28;20031;-85
2022/10/04 04:37:00;;;;;;;3.30;2.08;;;;;;;10.55;61.66;95760.25;4981839;28;20054;-85
2022/10/04 04:39:44;;;;;;;3.28;2.25;;;;;;;10.44;61.87;95756.88;4969519;28;20130;-86
2022/10/04 04:42:12;;;;;;;4.30;2.13;;;;;;;10.47;62.00;95764.63;4989953;28;20030;-86
2022/10/04 04:45:02;;;;;;;4.55;2.55;;;;;;;10.55;61.68;95766.47;4985477;28;20038;-86
2022/10/04 04:47:43;;;;;;;3.80;2.40;;;;;;;10.62;61.63;95769.31;4985605;28;20117;-86
2022/10/04 04:50:14;;;;;;;4.38;2.30;;;;;;;10.65;61.56;95765.44;4986027;28;20033;-86
2022/10/04 04:52:40;;;;;;;3.03;2.17;;;;;;;10.58;61.75;95763.44;4985389;28;20486;-86
2022/10/04 04:55:05;;;;;;;6.20;2.20;;;;;;;10.57;61.55;95761.78;4971743;28;20156;-85
2022/10/04 04:57:32;;;;;;;3.08;1.90;;;;;;;10.55;62.07;95763.78;4973231;28;20066;-86
2022/10/04 04:59:59;;;;;;;4.22;2.03;;;;;;;10.61;61.62;95763.09;4974078;28;20030;-85
2022/10/04 05:02:27;;;;;;;5.03;2.58;;;;;;;10.66;61.41;95767.09;4989515;28;20036;-87
2022/10/04 05:05:17;;;;;;;5.78;2.95;;;;;;;10.70;60.83;95769.31;4991098;28;20034;-85
2022/10/04 05:07:43;;;;;;;4.18;2.33;;;;;;;10.84;60.39;95769.59;4989861;28;20073;-86
2022/10/04 05:10:32;;;;;;;6.32;2.42;;;;;;;11.00;59.30;95779.47;4957435;28;20462;-87
2022/10/04 05:13:01;;;;;;;5.13;2.45;;;;;;;10.95;59.59;95768.41;4991224;28;20117;-85
2022/10/04 05:15:30;;;;;;;5.20;2.90;;;;;;;10.90;59.79;95771.59;4989380;28;20493;-86
2022/10/04 05:17:55;;;;;;;5.20;2.38;;;;;;;10.81;59.97;95780.69;4989160;28;20088;-86
2022/10/04 05:20:21;;;;;;;4.72;2.40;;;;;;;10.71;60.22;95781.69;4973961;28;20032;-86
2022/10/04 05:22:46;;;;;;;5.13;2.42;;;;;;;10.87;59.64;95785.34;4959716;28;20030;-86
2022/10/04 05:25:15;;;;;;;5.15;2.35;;;;;;;11.05;59.32;95774.44;4973272;28;20101;-85
2022/10/04 05:27:44;;;;;;;6.05;2.40;;;;;;;11.24;58.56;95783.09;4972920;28;20034;-86
2022/10/04 05:30:35;;;;;;;5.05;3.05;;;;;;;11.41;58.34;95775.84;4991049;28;20072;-86
2022/10/04 05:33:03;;;;;;;4.53;2.22;;;;;;;11.30;58.51;95784.25;4990944;28;20038;-87
2022/10/04 05:35:28;;;;;;;3.22;2.28;;;;;;;11.41;58.45;95788.41;4989929;28;20057;-87
2022/10/04 05:38:02;;;;;;;5.25;2.83;;;;;;;11.49;58.44;95789.22;4973154;28;20500;-85
2022/10/04 05:40:54;;;;;;;3.70;2.60;;;;;;;11.58;58.73;95789.19;4988594;28;20555;-85
2022/10/04 05:43:33;;;;;;;4.30;2.58;;;;;;;11.53;58.93;95788.88;4993299;28;20046;-86
2022/10/04 05:46:21;;;;;;;5.38;2.60;;;;;;;11.68;58.99;95795.19;4992672;28;20398;-86
2022/10/04 05:49:09;;;;;;;7.47;2.42;;;;;;;11.75;58.97;95798.03;5009398;28;20022;-85
2022/10/04 05:51:47;;;;;;;5.10;2.03;;;;;;;11.82;58.71;95798.13;4992379;28;20232;-86
2022/10/04 05:54:13;;;;;;;5.05;2.10;;;;;;;11.97;58.13;95803.59;4991857;28;20404;-86
2022/10/04 05:56:51;;;;;;;2.92;1.90;;;;;;;12.02;57.98;95805.78;4991811;28;20417;-85
2022/10/04 05:59:39;;;;;;;4.18;2.30;;;;;;;12.08;58.08;95815.84;4993218;28;20405;-87
2022/10/04 06:02:21;;;;;;;3.22;2.30;;;;;;;12.20;57.27;95829.72;4992232;28;20056;-87
2022/10/04 06:05:05;;;;;;;3.38;2.50;;;;;;;12.10;57.91;95819.19;4992531;28;20083;-85
2022/10/04 06:07:33;;;;;;;3.22;2.33;;;;;;;12.24;57.68;95833.72;4992245;28;20029;-86
2022/10/04 06:10:14;;;;;;;3.92;2.50;;;;;;;12.05;58.13;95830.44;4991531;28;20029;-87
2022/10/04 06:13:06;;;;;;;3.60;2.30;;;;;;;12.05;58.22;95830.44;4992843;28;20092;-86
2022/10/04 06:15:37;;;;;;;3.17;2.20;;;;;;;12.15;58.15;95837.47;4993108;28;20041;-86
2022/10/04 06:18:18;;;;;;;3.83;2.33;;;;;;;12.24;58.42;95834.56;4975923;28;20041;-87
2022/10/04 06:21:16;;;;;;;2.50;2.15;;;;;;;12.36;57.96;95834.16;4975892;28;20034;-87
2022/10/04 06:24:03;;;;;;;3.63;2.15;;;;;;;12.56;57.34;95844.44;5009492;28;20108;-86
2022/10/04 06:26:43;;;;;;;5.03;2.22;;;;;;;12.63;57.57;95844.56;5010130;28;20468;-87
2022/10/04 06:29:21;;;;;;;3.15;2.00;;;;;;;12.90;56.91;95850.41;4976244;28;20030;-87
2022/10/04 06:32:03;;;;;;;4.57;2.15;;;;;;;13.02;55.90;95846.28;4975130;28;20035;-87
2022/10/04 06:34:44;;;;;;;5.03;2.20;;;;;;;13.06;56.06;95849.41;4993577;28;20076;-87
2022/10/04 06:37:21;;;;;;;4.68;2.70;;;;;;;12.91;56.51;95842.16;5008649;28;20513;-87
2022/10/04 06:40:08;;;;;;;5.30;2.47;;;;;;;13.14;55.48;95848.53;5009046;28;20409;-87
2022/10/04 06:42:38;;;;;;;4.03;2.55;;;;;;;13.14;54.80;95846.66;5009122;28;20497;-86
2022/10/04 06:45:22;;;;;;;3.63;2.33;;;;;;;13.01;55.52;95851.84;4987374;28;20046;-86
2022/10/04 06:48:26;;;;;;;3.92;2.10;;;;;;;13.11;54.95;95855.09;4989628;28;20084;-87
2022/10/04 06:51:10;;;;;;;4.65;1.90;;;;;;;12.70;55.31;95850.91;4988027;28;20080;-87
2022/10/04 06:54:11;;;;;;;3.55;2.17;;;;;;;12.79;55.33;95849.81;4987877;28;20023;-87
2022/10/04 06:57:08;;;;;;;4.38;2.20;;;;;;;12.95;54.65;95862.31;4936742;28;20070;-87
2022/10/04 07:00:03;;;;;;;6.90;2.10;;;;;;;13.04;54.37;95856.88;4921072;28;20137;-87
2022/10/04 07:02:30;;;;;;;3.70;2.50;;;;;;;12.73;54.37;95848.69;4987004;28;20038;-86
2022/10/04 07:05:51;;;;;;;5.13;2.17;;;;;;;12.64;54.93;95857.84;4971457;28;20022;-86
2022/10/04 07:08:39;;;;;;;4.25;2.10;;;;;;;12.58;54.85;95859.41;4894080;29;20167;-86
2022/10/04 07:11:15;;;;;;;4.03;2.70;;;;;;;12.54;54.03;95857.25;4892956;29;20168;-87
2022/10/04 07:13:47;;;;;;;4.43;2.30;;;;;;;12.41;54.54;95869.44;4967928;28;20120;-86
2022/10/04 07:16:15;;;;;;;6.80;2.50;;;;;;;12.15;55.65;95867.91;4988348;28;20031;-86
2022/10/04 07:18:58;;;;;;;10.05;3.45;;;;;;;11.89;55.95;95874.38;4988294;28;20038;-86
2022/10/04 07:21:25;;;;;;;6.15;2.40;;;;;;;11.75;56.31;95867.88;4987434;28;20034;-86
2022/10/04 07:24:00;;;;;;;4.80;2.25;;;;;;;11.70;56.57;95859.50;4970977;28;20044;-85
2022/10/04 07:26:46;;;;;;;4.70;2.58;;;;;;;11.76;55.72;95866.88;4955950;28;20556;-86
2022/10/04 07:29:20;;;;;;;3.10;2.45;;;;;;;11.76;55.80;95877.63;4972025;28;20402;-87
2022/10/04 07:32:26;;;;;;;5.63;2.60;;;;;;;11.64;56.22;95885.19;4971326;28;20018;-86
2022/10/04 07:34:54;;;;;;;3.40;2.20;;;;;;;11.93;55.38;95877.56;4987274;28;20026;-86
2022/10/04 07:37:20;;;;;;;8.20;2.70;;;;;;;12.24;55.10;95884.81;4970585;28;20366;-87
2022/10/04 07:39:57;;;;;;;2.67;2.28;;;;;;;12.07;54.27;95873.28;4971053;28;20026;-85
2022/10/04 07:42:31;;;;;;;3.00;2.30;;;;;;;12.00;54.40;95886.59;4970975;28;20485;-86
2022/10/04 07:45:16;;;;;;;4.60;2.38;;;;;;;11.91;54.66;95880.44;5004967;28;20116;-87
2022/10/04 07:47:42;;;;;;;3.20;2.38;;;;;;;11.98;54.84;95891.28;5007887;28;20034;-87
2022/10/04 07:50:24;;;;;;;2.88;2.35;;;;;;;12.26;53.35;95884.66;4973441;28;20524;-88
2022/10/04 07:52:51;;;;;;;8.38;2.67;;;;;;;11.94;54.83;95885.44;4990349;28;20064;-86
2022/10/04 07:55:27;;;;;;;5.30;2.35;;;;;;;12.13;53.76;95887.91;4973398;28;20033;-87
2022/10/04 07:58:08;;;;;;;4.50;2.35;;;;;;;12.02;54.01;95891.78;5007569;28;20141;-86
2022/10/04 08:00:48;;;;;;;2.65;2.17;;;;;;;11.99;53.86;95883.06;5007789;28;20087;-87
2022/10/04 08:03:20;;;;;;;5.63;2.33;;;;;;;12.17;53.35;95887.38;4989455;28;20056;-87
2022/10/04 08:06:10;;;;;;;5.57;2.10;;;;;;;12.54;53.03;95874.22;4990602;28;20022;-87
2022/10/04 08:09:16;;;;;;;2.72;2.00;;;;;;;12.49;51.67;95882.81;4990417;28;20029;-87
2022/10/04 08:11:53;;;;;;;2.67;1.77;;;;;;;12.90;49.87;95877.31;4963343;28;20095;-87
2022/10/04 08:14:37;;;;;;;2.80;1.90;;;;;;;12.89;50.03;95881.88;5007984;28;20037;-88
2022/10/04 08:17:27;;;;;;;2.75;1.83;;;;;;;12.64;51.19;95873.97;5007439;28;20079;-86
2022/10/04 08:19:58;;;;;;;7.43;1.92;;;;;;;12.78;50.75;95866.16;4974537;28;20030;-87
2022/10/04 08:22:27;;;;;;;2.72;1.95;;;;;;;13.00;50.43;95871.69;5007439;28;20034;-86
2022/10/04 08:25:04;;;;;;;2.80;1.80;;;;;;;12.90;51.11;95878.16;5006759;28;20441;-87
2022/10/04 08:31:00;;;;;;;3.92;2.08;;;;;;;12.94;51.31;95874.13;4992153;28;20037;-87
2022/10/04 08:33:30;;;;;;;2.90;1.70;;;;;;;12.93;51.19;95869.72;4952443;28;20120;-87
2022/10/04 08:36:16;;;;;;;3.15;2.00;;;;;;;13.06;50.71;95870.97;4989833;28;20080;-87
2022/10/04 08:38:49;;;;;;;2.28;1.90;;;;;;;12.71;50.98;95869.56;4973692;28;20114;-87
2022/10/04 08:41:52;;;;;;;3.78;2.20;;;;;;;12.76;50.55;95865.50;4973433;28;20029;-86
2022/10/04 08:44:36;;;;;;;;;;;;;;;12.91;50.14;95866.41;5007789;28;20137;-86
2022/10/04 08:47:11;;;;;;;7.72;2.17;;;;;;;13.07;50.04;95869.97;4989063;28;20324;-87
2022/10/04 08:50:01;;;;;;;4.93;1.70;;;;;;;13.32;50.22;95878.63;5007231;28;20029;-85
2022/10/04 08:52:44;;;;;;;2.95;1.80;;;;;;;13.16;50.02;95870.72;4989283;28;20029;-86
2022/10/04 08:55:24;;;;;;;2.55;1.63;;;;;;;13.11;49.90;95873.94;5006564;28;20424;-87
2022/10/04 08:58:05;;;;;;;5.50;3.20;;;;;;;13.43;49.64;95871.16;4989420;28;20033;-87
2022/10/04 09:00:56;;;;;;;3.28;2.00;;;;;;;13.26;49.45;95876.69;5006797;28;20034;-88
2022/10/04 09:03:49;;;;;;;2.60;1.95;;;;;;;13.22;49.72;95868.13;4973219;28;20029;-86
2022/10/04 09:06:35;;;;;;;4.90;1.70;;;;;;;13.17;50.02;95888.56;5007230;28;20033;-86
2022/10/04 09:09:35;;;;;;;4.10;1.80;;;;;;;13.31;50.09;95879.66;4989128;28;20488;-86
2022/10/04 09:12:15;;;;;;;3.25;1.90;;;;;;;13.40;49.66;95887.66;4989903;28;20037;-87
2022/10/04 09:15:03;;;;;;;2.67;2.10;;;;;;;13.42;49.98;95888.31;5006740;28;20523;-87
2022/10/04 09:18:06;;;;;;;5.90;2.00;;;;;;;13.50;49.41;95884.69;4988705;28;20576;-86
2022/10/04 09:21:05;;;;;;;4.43;1.60;;;;;;;13.56;49.39;95886.69;5006321;28;20514;-88
2022/10/04 09:23:30;;;;;;;4.75;2.00;;;;;;;13.43;49.71;95888.13;5007006;28;20042;-87
2022/10/04 09:26:14;;;;;;;3.42;1.77;;;;;;;13.40;49.88;95888.50;5006931;28;20305;-87
2022/10/04 09:28:52;;;;;;;3.10;1.70;;;;;;;13.05;50.91;95896.22;5006467;28;20403;-86
2022/10/04 09:31:51;;;;;;;4.90;1.98;;;;;;;13.21;50.21;95888.00;4972919;28;20057;-87
2022/10/04 09:34:26;;;;;;;3.08;1.83;;;;;;;13.21;50.06;95895.25;5006103;28;20492;-86
2022/10/04 09:36:54;;;;;;;3.13;1.88;;;;;;;13.47;48.62;95902.91;5006871;28;20568;-87
2022/10/04 09:39:49;;;;;;;2.97;2.05;;;;;;;13.33;49.60;95887.56;5006961;28;20042;-87
2022/10/04 09:42:26;;;;;;;3.63;1.90;;;;;;;13.45;49.81;95901.41;4983545;28;20157;-87
2022/10/04 09:45:05;;;;;;;7.78;2.00;;;;;;;13.47;49.47;95897.53;5010294;28;20042;-86
2022/10/04 09:47:36;;;;;;;3.90;2.20;;;;;;;13.60;49.41;95898.78;5010014;28;20416;-89
2022/10/04 09:50:24;;;;;;;3.92;2.08;;;;;;;13.64;49.10;95894.69;5010762;28;20094;-87
2022/10/04 09:53:18;;;;;;;3.97;2.63;;;;;;;13.74;48.53;95888.16;5011308;28;20018;-86
2022/10/04 09:56:06;;;;;;;4.47;1.85;;;;;;;13.64;48.69;95902.75;5010329;28;20116;-87
2022/10/04 09:58:44;;;;;;;2.75;2.08;;;;;;;13.53;49.02;95889.75;5010563;28;20513;-86
2022/10/04 10:01:39;;;;;;;3.58;2.00;;;;;;;13.48;49.48;95896.50;5010045;28;20511;-86
2022/10/04 10:04:20;;;;;;;3.30;2.33;;;;;;;13.38;49.39;95901.31;4977467;28;20112;-87
2022/10/04 10:07:23;;;;;;;6.15;2.63;;;;;;;13.52;49.53;95890.78;5009882;28;20026;-87
2022/10/04 10:16:03;;;;;;;5.03;2.30;;;;;;;13.40;49.67;95898.44;5009941;28;20045;-86
2022/10/04 10:19:02;;;;;;;4.85;2.70;;;;;;;13.38;49.90;95895.09;4977487;28;20037;-87
2022/10/04 10:21:33;;;;;;;4.55;2.28;;;;;;;13.23;49.89;95904.81;5009238;28;20113;-88
2022/10/04 10:24:02;;;;;;;5.57;2.35;;;;;;;13.19;50.35;95897.28;5009727;28;20034;-86
2022/10/04 10:27:14;;;;;;;3.20;2.67;;;;;;;13.09;50.22;95897.56;5009134;28;20041;-87
2022/10/04 10:29:58;;;;;;;5.32;2.33;;;;;;;13.02;50.41;95902.81;4991245;28;20030;-87
2022/10/04 10:32:35;;;;;;;4.45;2.08;;;;;;;13.08;50.18;95895.84;5010105;28;20029;-87
2022/10/04 10:35:31;;;;;;;4.18;2.60;;;;;;;13.36;49.89;95903.38;4975694;28;20033;-87
2022/10/04 10:38:15;;;;;;;3.17;2.35;;;;;;;13.14;49.97;95905.91;5008787;28;20030;-87
2022/10/04 10:41:01;;;;;;;3.10;2.03;;;;;;;13.27;49.88;95902.59;5009639;28;20512;-85
2022/10/04 10:43:33;;;;;;;4.47;2.22;;;;;;;13.40;49.36;95898.44;4991310;28;20113;-88
2022/10/04 10:46:19;;;;;;;3.00;2.20;;;;;;;13.43;49.64;95898.91;4991710;28;20469;-87
2022/10/04 10:48:53;;;;;;;2.60;2.25;;;;;;;13.55;49.48;95896.63;4991374;28;20711;-87
2022/10/04 10:51:42;;;;;;;2.97;2.40;;;;;;;13.34;49.88;95892.78;5008775;28;20026;-86
2022/10/04 10:54:33;;;;;;;3.38;2.40;;;;;;;13.37;49.86;95898.78;4990984;28;20108;-87
2022/10/04 10:57:37;;;;;;;3.65;2.25;;;;;;;13.62;49.26;95883.28;5008654;28;20172;-86
2022/10/04 11:00:03;;;;;;;3.00;2.10;;;;;;;13.62;49.80;95890.50;5007519;28;20109;-87
2022/10/04 11:02:46;;;;;;;5.05;2.10;;;;;;;13.64;49.23;95888.47;5009037;28;20029;-87
2022/10/04 11:05:49;;;;;;;4.65;2.65;;;;;;;13.91;49.40;95878.88;5007979;28;20113;-87
2022/10/04 11:08:32;;;;;;;3.08;2.35;;;;;;;14.07;48.38;95879.72;4990753;28;20026;-86
2022/10/04 11:11:40;;;;;;;3.63;2.05;;;;;;;14.27;47.44;95884.50;5009049;28;20068;-88
2022/10/04 11:14:45;;;;;;;4.57;2.15;;;;;;;14.33;47.11;95889.97;5006343;28;20045;-87
2022/10/04 11:17:43;;;;;;;3.35;2.33;;;;;;;14.40;46.71;95875.72;5008263;28;20064;-88
2022/10/04 11:20:14;;;;;;;2.45;2.03;;;;;;;14.56;46.79;95883.59;4988980;28;20204;-87
2022/10/04 11:23:17;;;;;;;2.75;2.00;;;;;;;14.63;46.94;95880.97;5008177;28;20080;-87
2022/10/04 11:25:55;;;;;;;3.85;2.45;;;;;;;14.56;46.68;95880.03;5008277;28;20105;-86
2022/10/04 11:28:35;;;;;;;2.83;2.20;;;;;;;14.73;46.87;95890.59;4990650;28;20041;-87
2022/10/04 11:31:39;;;;;;;3.75;2.20;;;;;;;15.06;46.27;95887.41;5007845;28;20746;-86
2022/10/04 11:34:23;;;;;;;3.25;2.58;;;;;;;15.02;45.22;95883.44;4991164;28;20465;-87
2022/10/04 11:37:01;;;;;;;2.88;2.30;;;;;;;14.82;45.64;95886.78;5008084;28;20524;-87
2022/10/04 11:39:51;;;;;;;4.57;2.40;;;;;;;14.61;46.53;95892.97;5007350;28;20033;-87
2022/10/04 11:42:26;;;;;;;5.65;2.20;;;;;;;14.92;46.17;95890.00;4990743;28;20025;-88
2022/10/04 11:45:13;;;;;;;4.57;2.13;;;;;;;14.65;46.31;95892.41;5007492;28;20104;-87
2022/10/04 11:47:41;;;;;;;3.13;2.03;;;;;;;14.82;45.06;95892.19;5007756;28;20032;-86
2022/10/04 11:50:14;;;;;;;4.55;2.42;;;;;;;14.50;46.18;95887.06;4974729;28;20030;-87
2022/10/04 11:53:01;;;;;;;5.75;2.22;;;;;;;14.46;46.26;95896.56;4973870;28;20493;-86
2022/10/04 11:55:41;;;;;;;3.13;2.08;;;;;;;14.69;45.39;95904.50;4990004;28;20033;-88
2022/10/04 11:58:25;;;;;;;3.33;2.10;;;;;;;14.74;45.87;95897.69;4989965;28;20120;-88
2022/10/04 12:01:29;;;;;;;4.30;2.40;;;;;;;14.93;45.47;95897.06;4974842;28;20026;-87
2022/10/04 12:04:34;;;;;;;2.70;2.10;;;;;;;15.10;44.80;95899.53;5008620;28;20026;-87
2022/10/04 12:07:07;;;;;;;6.78;2.28;;;;;;;15.20;44.30;95902.72;4977457;28;20041;-89
2022/10/04 12:09:51;;;;;;;7.50;2.10;;;;;;;15.43;43.44;95895.41;5011170;28;20022;-88
2022/10/04 12:12:38;;;;;;;3.70;1.95;;;;;;;15.70;42.70;95892.91;5008398;28;20064;-87
2022/10/04 12:15:48;;;;;;;2.83;2.08;;;;;;;15.93;42.08;95906.13;5007514;28;20619;-87
2022/10/04 12:18:34;;;;;;;5.80;2.33;;;;;;;15.70;43.82;95901.03;4908256;29;20131;-88
2022/10/04 12:21:19;;;;;;;3.83;1.88;;;;;;;15.92;42.08;95901.78;5003686;28;20042;-88
2022/10/04 12:24:12;;;;;;;2.83;2.20;;;;;;;15.92;41.77;95899.06;5007265;28;20084;-88
2022/10/04 12:26:41;;;;;;;2.40;1.90;;;;;;;15.84;41.83;95901.09;4953431;28;20505;-88
2022/10/04 12:29:42;;;;;;;3.30;2.03;;;;;;;15.82;41.93;95906.69;4992374;28;20034;-87
2022/10/04 12:32:13;;;;;;;4.20;2.05;;;;;;;15.90;42.55;95898.44;5002232;28;20033;-87
2022/10/04 12:35:01;;;;;;;3.65;2.20;;;;;;;15.78;41.90;95908.94;4989634;28;20055;-87